Time;durP1;ratioP1;P1;durP2;ratioP2;P2;SDS_P1;SDS_P2;PMS_P1;PMS_P2;Temp;Humidity;BMP_temperature;BMP_pressure;BME280_temperature;BME280_humidity;BME280_pressure;Samples;Min_cycle;Max_cycle;Signal;HPM_P1;HPM_P2
2022/12/12 00:00:14;;;;;;;39.60;25.33;;;;;;;1.49;78.82;100103.84;6307294;22;20022;-83
2022/12/12 00:03:19;;;;;;;39.20;26.20;;;;;;;1.40;79.53;100110.03;6307182;22;20021;-83
2022/12/12 00:06:25;;;;;;;37.53;25.58;;;;;;;1.39;79.86;100116.06;6307006;22;20030;-83
2022/12/12 00:09:28;;;;;;;38.15;22.83;;;;;;;1.32;80.10;100119.66;6306664;22;20461;-83
2022/12/12 00:12:45;;;;;;;37.17;25.23;;;;;;;1.17;80.41;100118.25;6306935;22;20076;-83
2022/12/12 00:15:48;;;;;;;35.55;25.58;;;;;;;1.13;80.27;100114.88;6306755;22;20073;-83
2022/12/12 00:19:08;;;;;;;35.72;23.63;;;;;;;1.05;80.50;100116.75;6306889;22;20380;-83
2022/12/12 00:22:12;;;;;;;39.47;25.35;;;;;;;0.97;81.25;100128.09;6306822;22;20022;-84
2022/12/12 00:25:18;;;;;;;;;;;;;;;1.02;81.17;100115.97;6307370;22;20084;-84
2022/12/12 00:28:25;;;;;;;36.92;24.33;;;;;;;1.14;80.94;100116.56;6287640;22;19999;-84
2022/12/12 00:31:34;;;;;;;36.45;25.77;;;;;;;1.24;80.50;100112.09;6288262;22;20407;-83
2022/12/12 00:34:37;;;;;;;35.15;22.75;;;;;;;1.08;81.50;100121.84;6287711;22;20519;-83
2022/12/12 00:37:41;;;;;;;32.42;22.73;;;;;;;1.10;81.10;100126.97;6306664;22;20058;-84
2022/12/12 00:40:56;;;;;;;32.83;21.60;;;;;;;1.24;80.88;100127.53;6306717;22;20069;-84
2022/12/12 00:44:03;;;;;;;35.90;24.08;;;;;;;1.32;80.44;100125.66;6306397;22;20025;-83
2022/12/12 00:47:07;;;;;;;33.63;23.52;;;;;;;1.31;80.10;100129.13;6287635;22;20080;-83
2022/12/12 00:50:13;;;;;;;33.38;22.92;;;;;;;1.39;79.94;100136.69;6287644;22;20079;-84
2022/12/12 00:53:20;;;;;;;33.72;22.58;;;;;;;1.41;79.14;100134.94;6306571;22;20034;-84
2022/12/12 00:56:25;;;;;;;31.95;21.98;;;;;;;1.48;79.60;100130.50;6287749;22;20037;-83
2022/12/12 00:59:28;;;;;;;36.17;24.40;;;;;;;1.32;79.60;100135.13;6306433;22;20022;-83
2022/12/12 01:02:32;;;;;;;33.25;22.77;;;;;;;1.32;79.55;100135.13;6287327;22;20023;-83
2022/12/12 01:05:45;;;;;;;33.28;22.08;;;;;;;1.28;80.05;100138.66;6306570;22;20069;-83
2022/12/12 01:08:49;;;;;;;33.33;21.40;;;;;;;1.24;81.20;100134.41;6305270;22;20026;-83
2022/12/12 01:11:58;;;;;;;35.33;23.65;;;;;;;1.28;80.78;100143.81;6306824;22;20080;-83
2022/12/12 01:15:09;;;;;;;34.83;22.33;;;;;;;1.39;80.84;100141.84;6308412;22;20053;-83
2022/12/12 01:18:13;;;;;;;35.58;22.77;;;;;;;1.51;80.20;100141.59;6308235;22;20073;-83
2022/12/12 01:21:19;;;;;;;34.28;22.73;;;;;;;1.54;80.31;100145.84;6308133;22;20050;-83
2022/12/12 01:24:22;;;;;;;30.40;21.60;;;;;;;1.35;80.86;100140.22;6308418;22;20026;-83
2022/12/12 01:27:28;;;;;;;31.35;20.90;;;;;;;1.26;81.44;100140.41;6308318;22;20045;-83
2022/12/12 01:30:34;;;;;;;31.42;21.60;;;;;;;1.40;80.64;100143.53;6308221;22;20023;-83
2022/12/12 01:33:44;;;;;;;28.73;20.15;;;;;;;1.29;81.16;100141.19;6308219;22;20026;-83
2022/12/12 01:36:56;;;;;;;29.13;20.92;;;;;;;1.49;80.33;100145.06;6308377;22;20073;-83
2022/12/12 01:40:00;;;;;;;29.00;20.85;;;;;;;1.31;80.85;100141.16;6308384;22;20084;-83
2022/12/12 01:43:15;;;;;;;31.08;20.25;;;;;;;1.41;80.92;100140.09;6307706;22;20034;-83
2022/12/12 01:46:40;;;;;;;32.95;21.80;;;;;;;1.24;81.53;100137.00;6289199;22;20025;-83
2022/12/12 01:50:01;;;;;;;31.43;21.03;;;;;;;1.29;81.61;100130.03;6307925;22;20096;-83
2022/12/12 01:53:09;;;;;;;29.27;20.15;;;;;;;1.35;81.22;100127.34;6289144;22;20097;-83
2022/12/12 01:56:15;;;;;;;31.52;23.30;;;;;;;1.48;81.17;100131.34;6308058;22;20402;-83
2022/12/12 01:59:24;;;;;;;34.03;22.42;;;;;;;1.39;80.40;100136.69;6308314;22;20076;-84
2022/12/12 02:02:28;;;;;;;27.75;19.92;;;;;;;1.22;81.45;100146.50;6308128;22;20068;-83
2022/12/12 02:06:02;;;;;;;29.98;20.52;;;;;;;1.04;82.41;100145.13;6289232;22;20347;-83
2022/12/12 02:09:11;;;;;;;30.33;19.27;;;;;;;1.06;81.44;100151.94;6288971;22;20062;-83
2022/12/12 02:12:16;;;;;;;32.95;22.05;;;;;;;1.29;81.15;100146.34;6307874;22;20149;-83
2022/12/12 02:15:23;;;;;;;28.33;20.67;;;;;;;1.19;81.47;100151.72;6308108;22;20076;-83
2022/12/12 02:18:51;;;;;;;29.30;20.08;;;;;;;1.22;81.36;100161.94;6288839;22;20056;-82
2022/12/12 02:22:11;;;;;;;32.15;21.30;;;;;;;1.24;80.86;100168.75;6288884;22;20053;-82
2022/12/12 02:25:34;;;;;;;29.88;21.27;;;;;;;1.23;80.78;100161.06;6289252;22;20141;-83
2022/12/12 02:29:04;;;;;;;31.60;21.30;;;;;;;1.46;80.50;100161.44;6307453;22;20022;-82
2022/12/12 02:32:11;;;;;;;28.45;18.40;;;;;;;1.37;80.75;100164.19;6307812;22;20080;-83
2022/12/12 02:35:30;;;;;;;32.30;20.95;;;;;;;1.41;80.89;100157.28;6307716;22;20022;-82
2022/12/12 02:38:49;;;;;;;26.55;17.05;;;;;;;1.23;81.72;100163.63;6307769;22;20030;-82
2022/12/12 02:41:59;;;;;;;26.17;18.73;;;;;;;1.24;81.35;100168.75;6307433;22;20117;-83
2022/12/12 02:45:28;;;;;;;28.05;17.90;;;;;;;1.23;81.37;100167.06;6307723;22;20049;-82
2022/12/12 02:48:41;;;;;;;28.95;19.38;;;;;;;0.85;83.54;100165.22;6285944;22;20465;-82
2022/12/12 02:51:46;;;;;;;23.75;16.02;;;;;;;1.09;82.75;100159.59;6307648;22;20076;-82
2022/12/12 02:54:57;;;;;;;24.77;16.58;;;;;;;1.06;82.78;100172.53;6307780;22;20085;-83
2022/12/12 02:58:02;;;;;;;24.25;16.88;;;;;;;1.36;81.14;100165.09;6307693;22;20022;-83
2022/12/12 03:01:45;;;;;;;26.77;17.42;;;;;;;1.14;81.26;100172.38;6307358;22;20351;-83
2022/12/12 03:08:43;;;;;;;24.83;16.30;;;;;;;1.16;81.83;100170.63;6307352;22;20574;-82
2022/12/12 03:12:06;;;;;;;24.27;15.30;;;;;;;1.05;82.11;100162.25;6307321;22;20022;-83
2022/12/12 03:15:16;;;;;;;21.90;15.90;;;;;;;1.14;81.94;100178.38;6307410;22;20073;-83
2022/12/12 03:18:31;;;;;;;23.30;14.75;;;;;;;1.38;80.95;100171.91;6307329;22;20054;-83
2022/12/12 03:22:00;;;;;;;20.52;14.52;;;;;;;1.35;81.08;100164.25;6307240;22;20026;-83
2022/12/12 03:25:22;;;;;;;21.58;14.70;;;;;;;1.24;82.14;100173.06;6297291;22;20026;-83
2022/12/12 03:28:39;;;;;;;24.83;16.45;;;;;;;1.33;82.04;100172.88;6307383;22;20022;-82
2022/12/12 03:31:52;;;;;;;23.55;16.55;;;;;;;1.10;82.41;100174.16;6306834;22;20073;-83
2022/12/12 03:35:06;;;;;;;22.17;15.70;;;;;;;1.36;81.65;100163.34;6306827;22;20051;-83
2022/12/12 03:38:24;;;;;;;;;;;;;;;1.37;81.79;100165.06;6307630;22;20067;-83
2022/12/12 03:41:40;;;;;;;24.23;15.15;;;;;;;1.10;81.80;100166.44;6307027;22;19976;-83
2022/12/12 03:44:49;;;;;;;22.63;15.98;;;;;;;1.11;81.94;100168.13;6287715;22;20461;-83
2022/12/12 03:48:37;;;;;;;23.95;15.15;;;;;;;1.19;81.89;100160.28;6307043;22;20061;-83
2022/12/12 03:52:00;;;;;;;25.13;16.10;;;;;;;1.08;82.26;100169.91;6230684;22;20050;-83
2022/12/12 03:55:12;;;;;;;26.30;17.27;;;;;;;1.21;82.17;100162.81;6306677;22;20085;-83
2022/12/12 03:58:26;;;;;;;24.60;16.70;;;;;;;1.16;82.71;100170.63;6306888;22;20026;-83
2022/12/12 04:01:53;;;;;;;24.02;16.33;;;;;;;1.09;82.34;100176.78;6306916;22;20021;-83
2022/12/12 04:05:02;;;;;;;25.88;18.10;;;;;;;1.00;82.73;100174.38;6306901;22;20026;-83
2022/12/12 04:08:18;;;;;;;22.95;16.00;;;;;;;1.05;82.58;100178.53;6306481;22;20058;-83
2022/12/12 04:14:47;;;;;;;22.17;15.13;;;;;;;1.11;82.85;100183.59;6287766;22;20050;-83
2022/12/12 04:18:21;;;;;;;19.90;14.77;;;;;;;1.21;82.16;100184.25;6306858;22;20080;-83
2022/12/12 04:25:08;;;;;;;19.90;13.40;;;;;;;1.39;80.91;100188.22;6305248;22;20230;-83
2022/12/12 04:28:15;;;;;;;22.38;15.32;;;;;;;1.22;82.07;100185.97;6306720;22;20339;-83
2022/12/12 04:31:24;;;;;;;21.40;14.75;;;;;;;1.14;82.41;100188.69;6306981;22;20104;-83
2022/12/12 04:34:41;;;;;;;21.20;15.00;;;;;;;1.26;81.89;100186.75;6307139;22;20022;-83
2022/12/12 04:38:02;;;;;;;24.98;15.73;;;;;;;1.25;81.44;100187.66;6306331;22;20026;-83
2022/12/12 04:41:12;;;;;;;21.65;15.20;;;;;;;0.98;82.38;100199.31;6287618;22;20022;-83
2022/12/12 04:44:18;;;;;;;22.10;14.93;;;;;;;1.04;82.01;100202.59;6306270;22;20045;-82
2022/12/12 04:47:24;;;;;;;22.92;14.40;;;;;;;0.97;82.11;100202.75;6308605;22;20049;-81
2022/12/12 04:50:41;;;;;;;23.67;15.38;;;;;;;0.88;82.65;100206.34;6308304;22;20026;-82
2022/12/12 04:53:52;;;;;;;18.15;12.10;;;;;;;0.81;82.38;100200.44;6308800;22;20350;-81
2022/12/12 04:57:03;;;;;;;19.92;13.57;;;;;;;0.96;82.46;100204.50;6309045;22;20414;-82
2022/12/12 05:00:09;;;;;;;21.15;13.93;;;;;;;1.04;82.03;100200.03;6309502;22;20022;-83
2022/12/12 05:03:24;;;;;;;19.75;13.27;;;;;;;1.03;81.63;100206.06;6289613;22;20057;-83
2022/12/12 05:06:36;;;;;;;22.52;14.10;;;;;;;1.13;81.85;100206.75;6308497;22;20050;-83
2022/12/12 05:09:40;;;;;;;23.38;15.07;;;;;;;1.04;81.63;100202.59;6308698;22;20072;-83
2022/12/12 05:12:58;;;;;;;21.17;14.48;;;;;;;1.07;81.69;100204.28;6308608;22;20057;-82
2022/12/12 05:16:19;;;;;;;22.63;14.80;;;;;;;0.89;83.11;100202.88;6308614;22;20384;-82
2022/12/12 05:19:36;;;;;;;19.95;14.18;;;;;;;0.90;82.54;100210.59;6304541;22;20506;-83
2022/12/12 05:43:29;;;;;;;20.88;15.73;;;;;;;0.83;82.81;100232.16;6299753;22;20020;-83
2022/12/12 05:46:36;;;;;;;22.38;15.73;;;;;;;0.91;82.73;100230.28;6305437;22;20457;-82
2022/12/12 05:49:46;;;;;;;19.73;13.60;;;;;;;0.98;82.77;100227.63;6284134;22;20401;-83
2022/12/12 05:52:58;;;;;;;22.17;15.55;;;;;;;0.93;82.46;100222.56;6303718;22;20102;-83
2022/12/12 05:56:05;;;;;;;20.30;13.85;;;;;;;1.10;81.76;100219.69;6285445;22;20354;-81
2022/12/12 06:14:21;;;;;;;22.48;15.25;;;;;;;0.85;83.43;100224.41;6109677;23;20025;-85
2022/12/12 06:27:32;;;;;;;24.35;15.90;;;;;;;1.01;82.23;100237.84;6093994;23;20488;-84
2022/12/12 06:30:40;;;;;;;22.42;13.60;;;;;;;0.96;82.01;100232.81;6178704;23;20105;-85
2022/12/12 06:33:44;;;;;;;23.45;14.05;;;;;;;1.02;82.12;100244.69;6167769;23;20481;-83
2022/12/12 06:36:47;;;;;;;22.08;14.77;;;;;;;0.78;83.23;100241.69;6185924;23;20469;-84
2022/12/12 06:54:26;;;;;;;21.38;14.57;;;;;;;1.30;81.21;100252.78;6246748;23;20031;-80
2022/12/12 06:57:30;;;;;;;;;;;;;;;1.14;81.28;100258.19;6246910;23;20023;-89
2022/12/12 07:00:34;;;;;;;22.08;13.15;;;;;;;1.10;81.14;100253.16;6243256;23;20004;-84
2022/12/12 07:03:38;;;;;;;19.05;12.95;;;;;;;1.14;81.19;100247.91;6239971;23;20043;-84
2022/12/12 07:06:41;;;;;;;;;;;;;;;1.03;81.91;100251.56;6241095;23;20078;-85
2022/12/12 07:10:13;;;;;;;;;;;;;;;1.20;81.44;100253.84;6239965;23;19923;-87
2022/12/12 07:13:17;;;;;;;21.17;13.75;;;;;;;1.15;80.97;100257.34;6220392;23;19915;-85
2022/12/12 07:17:00;;;;;;;20.77;14.43;;;;;;;0.95;81.40;100259.41;6221310;23;20070;-89
2022/12/12 07:20:04;;;;;;;20.13;13.00;;;;;;;0.90;81.96;100261.22;6241039;23;20348;-86
2022/12/12 07:23:12;;;;;;;18.00;12.55;;;;;;;0.97;82.00;100261.97;6240853;23;20468;-79
2022/12/12 07:26:20;;;;;;;20.45;13.60;;;;;;;1.08;81.73;100268.63;6224656;23;20076;-78
2022/12/12 07:29:24;;;;;;;19.58;13.25;;;;;;;1.06;81.81;100266.97;6244582;23;20050;-79
2022/12/12 07:32:27;;;;;;;19.55;13.32;;;;;;;1.19;81.13;100283.06;6242111;23;20023;-84
2022/12/12 07:35:35;;;;;;;20.52;12.77;;;;;;;1.07;81.77;100284.94;6242710;23;20026;-81
2022/12/12 07:38:44;;;;;;;;;;;;;;;1.03;82.04;100283.31;6242855;23;20402;-83
2022/12/12 07:41:48;;;;;;;18.60;12.65;;;;;;;1.02;82.33;100281.63;6242323;23;19914;-83
2022/12/12 07:44:56;;;;;;;19.88;13.35;;;;;;;1.27;80.87;100283.75;6240987;23;20023;-82
2022/12/12 07:48:00;;;;;;;20.65;13.73;;;;;;;1.09;81.35;100290.94;6243564;23;20119;-85
2022/12/12 07:51:04;;;;;;;20.60;13.38;;;;;;;1.20;81.47;100303.63;6243748;23;20401;-83
2022/12/12 07:54:07;;;;;;;18.63;13.10;;;;;;;1.28;80.81;100306.91;6244283;23;20030;-83
2022/12/12 07:57:10;;;;;;;21.10;13.43;;;;;;;1.17;81.10;100308.81;6225786;23;20031;-84
2022/12/12 08:00:16;;;;;;;17.95;11.68;;;;;;;0.97;82.57;100308.31;6242925;23;20019;-85
2022/12/12 08:03:45;;;;;;;27.20;13.38;;;;;;;1.24;81.69;100312.97;6243703;23;20126;-88
2022/12/12 08:07:16;;;;;;;16.73;11.98;;;;;;;1.15;81.48;100306.28;6244318;23;20019;-88
2022/12/12 08:19:39;;;;;;;;;;;;;;;1.12;81.71;100318.38;6244678;23;20090;-86
2022/12/12 08:23:01;;;;;;;19.83;11.73;;;;;;;1.16;81.87;100320.00;6225528;23;19954;-86
2022/12/12 08:26:25;;;;;;;15.60;10.95;;;;;;;1.21;81.42;100325.06;6250767;22;20164;-79
2022/12/12 08:29:31;;;;;;;18.05;11.52;;;;;;;1.21;80.74;100318.19;6244977;23;20066;-79
2022/12/12 08:32:41;;;;;;;19.38;11.75;;;;;;;1.23;80.61;100328.47;6244999;23;20103;-79
2022/12/12 08:35:44;;;;;;;22.55;11.60;;;;;;;1.37;81.00;100329.94;6245185;23;20023;-78
2022/12/12 08:38:49;;;;;;;28.45;12.90;;;;;;;1.49;80.54;100328.84;6245414;23;20023;-87
2022/12/12 08:41:53;;;;;;;18.75;12.38;;;;;;;1.39;80.33;100327.31;6245225;23;20092;-88
2022/12/12 08:45:10;;;;;;;18.40;12.43;;;;;;;0.42;83.98;100330.59;6245074;23;20070;-80
2022/12/12 08:48:26;;;;;;;;;;;;;;;;;;;;;
2022/12/12 08:52:34;;;;;;;19.25;12.88;;;;;;;0.87;82.29;100336.78;6245979;23;20114;-91
2022/12/12 09:05:25;;;;;;;17.27;11.80;;;;;;;1.48;80.76;100347.78;6164007;22;20070;-88
2022/12/12 09:10:19;;;;;;;23.02;11.60;;;;;;;1.09;81.72;100345.00;6238042;23;20368;-85
2022/12/12 09:13:29;;;;;;;19.48;11.60;;;;;;;0.68;83.02;100354.22;6239328;23;20026;-85
2022/12/12 09:17:54;;;;;;;16.08;11.30;;;;;;;1.49;79.50;100351.19;6237983;23;20027;-85
2022/12/12 09:21:42;;;;;;;17.13;11.55;;;;;;;1.62;78.66;100350.94;6239817;23;20026;-88
2022/12/12 09:24:54;;;;;;;17.80;11.15;;;;;;;1.68;77.18;100354.28;6239557;23;20105;-82
2022/12/12 09:28:01;;;;;;;19.80;11.48;;;;;;;1.67;76.69;100368.06;6239768;23;20078;-81
2022/12/12 09:31:11;;;;;;;18.33;12.55;;;;;;;1.57;76.63;100367.38;6240431;23;20078;-81
2022/12/12 09:34:26;;;;;;;16.02;11.43;;;;;;;1.59;74.89;100371.59;6244270;23;20026;-81
2022/12/12 09:37:33;;;;;;;31.42;22.70;;;;;;;1.50;75.45;100371.78;6241691;23;20030;-82
2022/12/12 09:41:09;;;;;;;;;;;;;;;;;;;;;
2022/12/12 09:45:19;;;;;;;25.70;14.82;;;;;;;1.59;72.83;100379.34;6222744;23;20039;-90
2022/12/12 09:58:58;;;;;;;;;;;;;;;;;;;;;
2022/12/12 10:03:12;;;;;;;;;;;;;;;;;;;;;
2022/12/12 10:07:33;;;;;;;;;;;;;;;;;;;;;
2022/12/12 10:12:31;;;;;;;19.05;12.98;;;;;;;1.32;70.35;100351.50;6144468;23;20028;-89
2022/12/12 10:15:34;;;;;;;21.08;12.95;;;;;;;1.39;69.52;100355.66;6271194;22;20077;-82
2022/12/12 10:18:48;;;;;;;18.02;11.65;;;;;;;1.27;69.58;100353.28;6273496;22;20027;-82
2022/12/12 10:21:55;;;;;;;18.65;11.98;;;;;;;1.55;69.24;100354.50;6275845;22;20062;-82
2022/12/12 10:25:05;;;;;;;18.70;12.93;;;;;;;1.42;68.64;100355.59;6275276;22;20500;-81
2022/12/12 10:28:12;;;;;;;20.83;12.23;;;;;;;1.49;68.98;100359.78;6276349;22;20073;-82
2022/12/12 10:31:24;;;;;;;17.10;11.75;;;;;;;1.65;69.06;100359.50;6275866;22;20146;-81
2022/12/12 10:35:00;;;;;;;22.58;11.82;;;;;;;1.45;67.96;100367.59;6275873;22;20085;-81
2022/12/12 10:38:20;;;;;;;20.02;13.98;;;;;;;1.45;69.31;100367.59;6273764;22;20022;-81
2022/12/12 10:41:42;;;;;;;17.25;11.20;;;;;;;1.25;69.25;100365.38;6269439;22;20189;-81
2022/12/12 10:44:51;;;;;;;20.27;15.18;;;;;;;1.25;69.33;100370.50;6270378;22;20273;-81
2022/12/12 10:47:55;;;;;;;22.17;13.52;;;;;;;1.35;69.83;100366.91;6270567;22;20114;-80
2022/12/12 10:51:04;;;;;;;19.88;13.23;;;;;;;1.44;69.75;100363.31;6269734;22;20023;-82
2022/12/12 10:54:17;;;;;;;18.48;12.63;;;;;;;1.35;71.48;100356.59;6270349;22;20106;-84
2022/12/12 10:57:23;;;;;;;19.88;14.73;;;;;;;1.32;70.58;100351.50;6269741;22;20031;-81
2022/12/12 11:00:44;;;;;;;19.75;12.40;;;;;;;1.85;68.25;100347.94;6270297;22;20034;-82
2022/12/12 11:03:49;;;;;;;16.00;11.02;;;;;;;2.03;68.21;100346.72;6270118;22;20030;-83
2022/12/12 11:06:55;;;;;;;19.95;12.82;;;;;;;2.08;67.83;100342.34;6270375;22;20073;-82
2022/12/12 11:09:58;;;;;;;18.35;12.02;;;;;;;1.96;67.41;100349.47;6268614;22;20480;-84
2022/12/12 11:13:15;;;;;;;19.25;12.98;;;;;;;2.03;68.03;100349.28;6270753;22;20361;-84
2022/12/12 11:16:23;;;;;;;17.50;12.25;;;;;;;1.92;67.69;100348.69;6270731;22;20441;-82
2022/12/12 11:19:53;;;;;;;15.98;11.50;;;;;;;1.90;67.72;100347.84;6269057;22;20095;-88
2022/12/12 11:22:57;;;;;;;18.23;11.15;;;;;;;1.88;68.30;100336.69;6269004;22;20027;-81
2022/12/12 11:26:09;;;;;;;19.13;11.68;;;;;;;2.23;67.29;100335.97;6269600;22;20472;-79
2022/12/12 11:29:44;;;;;;;17.30;11.20;;;;;;;2.08;67.78;100339.75;6269471;22;20026;-81
2022/12/12 11:32:52;;;;;;;19.77;11.75;;;;;;;2.17;67.32;100340.41;6270501;22;20046;-82
2022/12/12 11:35:57;;;;;;;17.92;11.95;;;;;;;2.21;67.46;100339.50;6270690;22;20076;-82
2022/12/12 11:39:11;;;;;;;30.02;20.17;;;;;;;2.10;68.15;100337.13;6271134;22;20058;-80
2022/12/12 11:42:14;;;;;;;23.75;14.80;;;;;;;2.48;67.09;100328.56;6270638;22;20503;-81
2022/12/12 11:45:22;;;;;;;;;;;;;;;2.48;66.47;100336.31;6271350;22;20068;-80
2022/12/12 11:48:50;;;;;;;17.40;11.43;;;;;;;2.45;66.92;100328.63;6270946;22;19922;-80
2022/12/12 11:51:55;;;;;;;19.38;11.48;;;;;;;2.56;66.21;100337.00;6269290;22;20022;-81
2022/12/12 11:54:59;;;;;;;19.63;13.68;;;;;;;2.70;66.42;100331.50;6270002;22;20058;-82
2022/12/12 11:58:21;;;;;;;16.58;12.32;;;;;;;2.68;66.63;100332.44;6269884;22;20026;-84
2022/12/12 12:01:57;;;;;;;22.65;13.65;;;;;;;2.82;67.04;100321.81;6269058;22;20030;-84
2022/12/12 12:05:39;;;;;;;18.15;11.80;;;;;;;2.94;67.18;100309.44;6266918;22;20091;-86
2022/12/12 12:09:22;;;;;;;18.38;12.35;;;;;;;2.80;65.87;100306.31;6265937;22;20050;-83
2022/12/12 12:12:45;;;;;;;18.52;12.05;;;;;;;2.80;65.73;100306.31;6269227;22;20115;-84
2022/12/12 12:16:18;;;;;;;24.55;16.73;;;;;;;2.34;67.28;100309.97;6269626;22;20030;-82
2022/12/12 12:19:55;;;;;;;32.22;25.60;;;;;;;2.56;66.78;100306.03;6269256;22;20146;-78
2022/12/12 12:23:21;;;;;;;23.48;17.48;;;;;;;2.92;65.56;100303.44;6274039;22;20540;-86
2022/12/12 12:26:40;;;;;;;22.45;15.73;;;;;;;2.91;65.28;100312.09;6274718;22;20468;-85
2022/12/12 12:30:12;;;;;;;19.70;13.80;;;;;;;2.77;65.35;100306.41;6274042;22;20023;-88
2022/12/12 12:37:42;;;;;;;19.60;12.20;;;;;;;2.75;65.48;100295.28;6274347;22;20056;-84
2022/12/12 12:41:16;;;;;;;18.38;11.43;;;;;;;2.92;65.26;100298.28;6274275;22;20022;-86
2022/12/12 12:44:31;;;;;;;18.23;12.38;;;;;;;2.83;65.91;100295.94;6273526;22;20023;-77
2022/12/12 12:47:56;;;;;;;20.95;11.93;;;;;;;2.71;65.71;100289.34;6274517;22;20034;-85
2022/12/12 12:51:05;;;;;;;;;;;;;;;2.70;66.06;100287.63;6274323;22;20069;-84
2022/12/12 12:54:19;;;;;;;18.90;12.77;;;;;;;2.76;66.37;100281.47;6273794;22;19932;-85
2022/12/12 12:57:32;;;;;;;;;;;;;;;2.86;66.83;100285.53;6274693;22;20068;-83
2022/12/12 13:00:35;;;;;;;18.38;12.35;;;;;;;2.70;67.89;100277.31;6274481;22;19957;-82
2022/12/12 13:03:51;;;;;;;17.98;12.38;;;;;;;2.74;67.97;100280.66;6275002;22;20522;-83
2022/12/12 13:07:07;;;;;;;19.85;11.75;;;;;;;2.69;67.19;100274.78;6275520;22;20023;-83
2022/12/12 13:10:30;;;;;;;20.17;12.88;;;;;;;2.59;68.42;100275.88;6274007;22;20046;-82
2022/12/12 13:13:38;;;;;;;24.42;12.20;;;;;;;2.67;68.11;100276.53;6275008;22;20045;-83
2022/12/12 13:16:44;;;;;;;16.98;11.30;;;;;;;2.83;67.59;100271.84;6276739;22;20073;-85
2022/12/12 13:19:52;;;;;;;17.02;11.38;;;;;;;3.05;66.98;100267.00;6272762;22;20321;-86
2022/12/12 13:23:39;;;;;;;15.35;11.23;;;;;;;2.89;67.68;100272.53;6271696;22;20432;-85
2022/12/12 13:26:54;;;;;;;16.38;11.43;;;;;;;2.88;68.10;100272.59;6271630;22;20027;-87
2022/12/12 13:30:17;;;;;;;17.55;11.73;;;;;;;2.82;68.28;100265.00;6269526;22;20023;-84
2022/12/12 13:33:49;;;;;;;17.30;10.70;;;;;;;2.92;72.13;100272.47;6270819;22;20058;-86
2022/12/12 13:37:19;;;;;;;18.42;11.32;;;;;;;2.78;69.46;100279.72;6271288;22;20046;-87
2022/12/12 13:40:38;;;;;;;17.17;10.35;;;;;;;2.75;69.95;100277.22;6270635;22;20085;-86
2022/12/12 13:44:30;;;;;;;16.27;10.90;;;;;;;2.70;69.72;100268.72;6270492;22;20157;-88
2022/12/12 13:51:45;;;;;;;18.55;11.05;;;;;;;2.23;71.31;100268.06;6270535;22;20019;-88
2022/12/12 13:55:12;;;;;;;18.67;10.88;;;;;;;2.18;71.80;100264.75;6253530;22;20027;-88
2022/12/12 13:58:34;;;;;;;18.45;11.40;;;;;;;2.02;72.20;100262.50;6270733;22;20030;-87
2022/12/12 14:01:39;;;;;;;16.58;10.52;;;;;;;1.97;72.23;100256.59;6270766;22;20133;-87
2022/12/12 14:05:20;;;;;;;18.83;11.55;;;;;;;2.09;72.01;100258.91;6271025;22;20030;-85
2022/12/12 14:13:52;;;;;;;18.17;10.68;;;;;;;1.77;73.13;100256.16;6270329;22;20031;-90
2022/12/12 15:06:32;;;;;;;15.48;9.75;;;;;;;1.35;76.24;100284.47;6182228;23;20483;-85
2022/12/12 15:24:43;;;;;;;14.38;9.93;;;;;;;1.58;75.46;100302.91;6112768;23;20029;-80
2022/12/12 15:28:03;;;;;;;13.75;9.60;;;;;;;1.66;75.29;100309.63;6086283;23;20081;-86
2022/12/12 15:31:42;;;;;;;19.92;11.63;;;;;;;1.30;76.06;100301.72;6178674;23;20769;-89
2022/12/12 15:35:11;;;;;;;13.15;9.25;;;;;;;1.27;76.88;100294.03;6159874;23;20109;-91
2022/12/12 15:47:55;;;;;;;16.10;10.18;;;;;;;1.39;75.48;100293.84;6155293;23;20036;-81
2022/12/12 15:51:06;;;;;;;18.58;12.35;;;;;;;1.13;75.76;100295.16;6146234;23;20031;-87
2022/12/12 16:09:48;;;;;;;18.77;11.95;;;;;;;0.74;76.62;100311.25;6202468;22;1312261;-81
2022/12/12 16:13:02;;;;;;;12.18;9.07;;;;;;;0.61;77.95;100310.59;6223459;23;20023;-81
2022/12/12 16:16:47;;;;;;;15.60;10.73;;;;;;;0.73;77.26;100314.69;6223301;23;20027;-79
2022/12/12 16:20:07;;;;;;;16.75;11.23;;;;;;;0.64;76.88;100321.69;6204827;23;20027;-80
2022/12/12 16:23:38;;;;;;;16.15;10.85;;;;;;;0.58;77.26;100326.91;6223079;23;20074;-80
2022/12/12 16:27:15;;;;;;;16.67;10.07;;;;;;;0.34;78.11;100322.13;6221900;23;20023;-80
2022/12/12 16:30:19;;;;;;;16.75;9.98;;;;;;;0.25;77.99;100333.34;6221329;23;20027;-79
2022/12/12 16:33:25;;;;;;;16.00;8.93;;;;;;;0.37;77.74;100328.06;6219229;23;20031;-81
2022/12/12 16:36:28;;;;;;;16.30;10.18;;;;;;;0.55;77.60;100323.53;6222269;23;20413;-81
2022/12/12 16:39:32;;;;;;;19.00;12.35;;;;;;;0.71;76.96;100308.72;6223688;23;20058;-77
2022/12/12 16:42:39;;;;;;;16.80;11.30;;;;;;;0.66;76.40;100313.94;6223450;23;20512;-79
2022/12/12 16:45:43;;;;;;;15.07;10.45;;;;;;;0.45;77.11;100309.97;6223352;23;20027;-81
2022/12/12 16:48:47;;;;;;;17.08;12.35;;;;;;;0.42;77.02;100315.16;6223540;23;20074;-81
2022/12/12 16:51:50;;;;;;;15.60;11.65;;;;;;;0.32;76.74;100321.28;6222214;23;20718;-80
2022/12/12 16:54:54;;;;;;;;;;;;;;;0.22;77.58;100328.25;6205118;23;20026;-81
2022/12/12 16:57:57;;;;;;;16.77;10.55;;;;;;;0.30;77.75;100335.88;6220588;23;19919;-77
2022/12/12 17:01:03;;;;;;;18.98;13.32;;;;;;;0.26;77.72;100339.38;6192675;23;20027;-79
2022/12/12 17:04:18;;;;;;;21.65;14.38;;;;;;;0.38;77.56;100334.06;6192594;23;20043;-83
2022/12/12 17:07:22;;;;;;;17.63;11.65;;;;;;;0.31;78.04;100335.00;6191490;23;20469;-80
2022/12/12 17:10:26;;;;;;;14.35;9.88;;;;;;;0.31;77.96;100337.59;6185746;23;20027;-81
2022/12/12 17:13:29;;;;;;;17.10;11.23;;;;;;;0.46;77.60;100342.53;6184250;23;20023;-81
2022/12/12 17:16:33;;;;;;;18.88;12.50;;;;;;;0.37;77.05;100335.78;6181735;23;20032;-81
2022/12/12 17:19:39;;;;;;;20.52;11.95;;;;;;;0.18;77.21;100339.47;6181077;23;20028;-81
2022/12/12 17:22:49;;;;;;;16.10;11.93;;;;;;;0.14;77.60;100346.38;6181955;23;20028;-79
2022/12/12 17:26:02;;;;;;;17.27;12.45;;;;;;;-0.03;78.61;100349.16;6181452;23;20027;-83
2022/12/12 17:29:07;;;;;;;14.80;9.75;;;;;;;0.07;78.26;100355.03;6181320;23;20032;-80
2022/12/12 17:32:10;;;;;;;16.35;10.23;;;;;;;0.09;77.84;100360.97;6163944;23;20047;-81
2022/12/12 17:35:14;;;;;;;;;;;;;;;-0.06;78.58;100363.75;6182660;23;20110;-81
2022/12/12 17:39:18;;;;;;;16.52;11.85;;;;;;;0.09;77.35;100358.41;6181869;23;19970;-81
2022/12/12 17:42:21;;;;;;;21.98;14.10;;;;;;;0.06;77.31;100366.16;6160650;23;20031;-81
2022/12/12 17:56:54;;;;;;;18.10;14.60;;;;;;;-0.37;78.41;100353.81;6252337;22;2233059;-84
2022/12/12 18:00:11;;;;;;;17.50;12.30;;;;;;;-0.37;78.54;100358.94;6346347;22;20111;-85
2022/12/12 18:03:18;;;;;;;18.38;13.25;;;;;;;-0.25;77.97;100350.25;6347298;22;20071;-84
2022/12/12 18:06:28;;;;;;;17.50;11.98;;;;;;;-0.36;77.93;100350.34;6321791;22;20037;-83
2022/12/12 18:09:42;;;;;;;17.65;12.18;;;;;;;-0.27;77.44;100355.41;6309832;22;20022;-85
2022/12/12 18:12:49;;;;;;;18.50;12.50;;;;;;;-0.40;77.84;100348.69;6346929;22;20531;-85
2022/12/12 18:15:59;;;;;;;17.15;12.43;;;;;;;-0.38;77.65;100344.41;6347111;22;20021;-86
2022/12/12 18:19:36;;;;;;;;;;;;;;;;;;;;;
2022/12/12 18:22:48;;;;;;;17.70;12.07;;;;;;;-0.95;78.18;100349.22;6337197;22;20482;-82
2022/12/12 18:25:52;;;;;;;16.38;10.48;;;;;;;-0.49;77.63;100351.34;6327969;22;20025;-83
2022/12/12 18:29:01;;;;;;;15.57;11.05;;;;;;;-0.61;77.92;100344.59;6347271;22;20356;-83
2022/12/12 18:32:05;;;;;;;15.68;10.50;;;;;;;-0.61;77.47;100359.16;6347140;22;20026;-85
2022/12/12 18:35:37;;;;;;;17.90;10.93;;;;;;;-0.42;76.70;100362.41;6347117;22;20474;-84
2022/12/12 18:39:02;;;;;;;16.05;10.70;;;;;;;-0.74;77.57;100369.53;6328035;22;20079;-89
2022/12/12 18:42:06;;;;;;;17.17;10.90;;;;;;;-0.71;78.04;100364.38;6347065;22;20478;-81
2022/12/12 18:45:13;;;;;;;14.80;10.05;;;;;;;-0.80;77.71;100367.06;6327963;22;20026;-85
2022/12/12 18:48:17;;;;;;;14.88;9.25;;;;;;;-0.72;76.97;100367.81;6327713;22;20053;-84